createdAt,value
2022-11-30T00:01:51.530Z,101493.81
2022-11-30T00:04:19.552Z,101505.41
2022-11-30T00:06:48.788Z,101510.63
2022-11-30T00:09:16.694Z,101510.09
2022-11-30T00:11:44.637Z,101515.09
2022-11-30T00:14:12.539Z,101520.84
2022-11-30T00:16:41.065Z,101516.28
2022-11-30T00:19:09.028Z,101512.81
2022-11-30T00:21:37.409Z,101523.34
2022-11-30T00:24:08.083Z,101517.28
2022-11-30T00:26:36.546Z,101520.97
2022-11-30T00:29:05.115Z,101515.09
2022-11-30T00:31:33.495Z,101515.03
2022-11-30T00:34:01.456Z,101520.72
2022-11-30T00:36:29.539Z,101522.81
2022-11-30T00:38:57.586Z,101518.22
2022-11-30T00:41:26.950Z,101508.16
2022-11-30T00:43:54.877Z,101511.75
2022-11-30T00:46:22.724Z,101517.63
2022-11-30T00:48:50.651Z,101509.06
2022-11-30T00:51:20.340Z,101519.75
2022-11-30T00:53:48.728Z,101511.66
2022-11-30T00:56:16.999Z,101518.44
2022-11-30T00:58:46.323Z,101517.34
2022-11-30T01:01:14.321Z,101517.69
2022-11-30T01:03:42.687Z,101516.97
2022-11-30T01:06:11.713Z,101516.06
2022-11-30T01:08:40.027Z,101517.88
2022-11-30T01:11:10.459Z,101511.25
2022-11-30T01:13:38.514Z,101510.28
2022-11-30T01:16:12.603Z,101514.09
2022-11-30T01:18:40.572Z,101521.25
2022-11-30T01:21:11.089Z,101522.69
2022-11-30T01:23:39.026Z,101519.78
2022-11-30T01:26:07.567Z,101524.06
2022-11-30T01:28:36.354Z,101529.25
2022-11-30T01:31:06.178Z,101520.56
2022-11-30T01:33:36.125Z,101520.19
2022-11-30T01:36:06.564Z,101521.78
2022-11-30T01:38:35.720Z,101521.66
2022-11-30T01:41:04.735Z,101525.25
2022-11-30T01:43:44.210Z,101525.06
2022-11-30T01:46:33.449Z,101524.22
2022-11-30T01:49:07.814Z,101531.31
2022-11-30T01:51:37.285Z,101528.03
2022-11-30T01:54:09.666Z,101529.25
2022-11-30T01:56:42.833Z,101534.94
2022-11-30T01:59:12.052Z,101530.84
2022-11-30T02:01:40.081Z,101517.19
2022-11-30T02:04:12.815Z,101521.16
2022-11-30T02:06:40.981Z,101521.28
2022-11-30T02:09:09.413Z,101523.59
2022-11-30T02:11:37.434Z,101529.50
2022-11-30T02:14:17.002Z,101534.38
2022-11-30T02:16:56.739Z,101529.75
2022-11-30T02:20:17.369Z,101538.16
2022-11-30T02:22:59.335Z,101533.72
2022-11-30T02:25:37.694Z,101536.56
2022-11-30T02:28:44.650Z,101533.34
2022-11-30T02:31:17.932Z,101527.25
2022-11-30T02:33:48.653Z,101524.75
2022-11-30T02:36:17.927Z,101532.06
2022-11-30T02:38:45.977Z,101519.41
2022-11-30T02:41:14.293Z,101520.78
2022-11-30T02:43:43.664Z,101525.97
2022-11-30T02:46:20.237Z,101526.88
2022-11-30T02:48:54.391Z,101523.28
2022-11-30T02:51:26.260Z,101525.00
2022-11-30T02:53:55.638Z,101528.50
2022-11-30T02:56:24.518Z,101528.81
2022-11-30T02:58:53.881Z,101527.19
2022-11-30T03:01:22.209Z,101537.38
2022-11-30T03:03:50.227Z,101535.56
2022-11-30T03:06:18.334Z,101528.81
2022-11-30T03:08:46.168Z,101527.59
2022-11-30T03:11:14.094Z,101531.69
2022-11-30T03:13:42.172Z,101533.59
2022-11-30T03:16:13.904Z,101532.50
2022-11-30T03:18:42.268Z,101538.91
2022-11-30T03:21:12.161Z,101522.34
2022-11-30T03:23:41.127Z,101541.59
2022-11-30T03:26:10.408Z,101537.16
2022-11-30T03:28:38.580Z,101541.16
2022-11-30T03:31:07.140Z,101535.56
2022-11-30T03:33:36.582Z,101545.56
2022-11-30T03:36:06.971Z,101536.97
2022-11-30T03:38:35.270Z,101545.63
2022-11-30T03:41:04.867Z,101545.84
2022-11-30T03:43:32.697Z,101556.22
2022-11-30T03:46:01.352Z,101548.81
2022-11-30T03:48:29.441Z,101557.19
2022-11-30T03:50:58.911Z,101555.91
2022-11-30T03:53:27.021Z,101559.31
2022-11-30T03:55:56.569Z,101554.72
2022-11-30T03:58:25.775Z,101560.59
2022-11-30T04:01:00.368Z,101554.72
2022-11-30T04:03:28.013Z,101564.50
2022-11-30T04:05:55.930Z,101564.00
2022-11-30T04:08:25.296Z,101566.50
2022-11-30T04:10:54.013Z,101554.03
2022-11-30T04:13:23.113Z,101566.88
2022-11-30T04:15:52.751Z,101569.19
2022-11-30T04:18:22.158Z,101571.50
2022-11-30T04:20:51.845Z,101568.28
2022-11-30T04:23:20.618Z,101572.00
2022-11-30T04:25:50.284Z,101578.56
2022-11-30T04:28:19.284Z,101576.25
2022-11-30T04:30:47.409Z,101577.16
2022-11-30T04:33:17.494Z,101574.19
2022-11-30T04:35:48.517Z,101582.88
2022-11-30T04:38:16.715Z,101578.00
2022-11-30T04:40:45.623Z,101582.09
2022-11-30T04:43:15.321Z,101583.19
2022-11-30T04:45:45.066Z,101571.00
2022-11-30T04:48:13.079Z,101576.78
2022-11-30T04:50:41.064Z,101583.75
2022-11-30T04:53:09.648Z,101584.84
2022-11-30T04:55:38.145Z,101579.59
2022-11-30T04:58:05.931Z,101592.97
2022-11-30T05:00:36.387Z,101571.59
2022-11-30T05:03:04.920Z,101581.09
2022-11-30T05:05:32.775Z,101586.75
2022-11-30T05:08:01.080Z,101593.16
2022-11-30T05:10:30.545Z,101594.97
2022-11-30T05:12:58.651Z,101595.66
2022-11-30T05:15:27.338Z,101575.69
2022-11-30T05:17:59.832Z,101584.19
2022-11-30T05:20:27.810Z,101591.25
2022-11-30T05:22:55.827Z,101595.34
2022-11-30T05:25:23.788Z,101604.84
2022-11-30T05:27:51.691Z,101604.84
2022-11-30T05:30:20.025Z,101599.03
2022-11-30T05:32:48.275Z,101607.44
2022-11-30T05:35:18.062Z,101601.16
2022-11-30T05:37:46.569Z,101609.75
2022-11-30T05:40:17.982Z,101612.22
2022-11-30T05:42:45.898Z,101609.50
2022-11-30T05:45:13.762Z,101609.75
2022-11-30T05:47:43.275Z,101615.50
2022-11-30T05:50:11.272Z,101614.44
2022-11-30T05:52:40.509Z,101616.94
2022-11-30T05:55:08.996Z,101615.13
2022-11-30T05:57:37.649Z,101620.50
2022-11-30T06:00:06.669Z,101605.72
2022-11-30T06:02:39.521Z,101619.44
2022-11-30T06:05:08.433Z,101617.81
2022-11-30T06:07:38.474Z,101632.91
2022-11-30T06:10:09.163Z,101608.53
2022-11-30T06:12:36.904Z,101628.47
2022-11-30T06:15:05.478Z,101627.81
2022-11-30T06:17:33.430Z,101632.78
2022-11-30T06:20:01.429Z,101632.78
2022-11-30T06:22:29.473Z,101623.19
2022-11-30T06:24:57.264Z,101638.56
2022-11-30T06:27:26.677Z,101636.78
2022-11-30T06:29:54.891Z,101641.16
2022-11-30T06:32:22.761Z,101635.16
2022-11-30T06:34:50.482Z,101639.66
2022-11-30T06:37:18.326Z,101638.38
2022-11-30T06:42:37.408Z,101640.16
2022-11-30T06:45:07.084Z,101650.56
2022-11-30T06:47:34.976Z,101655.75
2022-11-30T06:50:03.224Z,101655.03
2022-11-30T06:52:31.628Z,101654.16
2022-11-30T06:54:59.623Z,101648.97
2022-11-30T06:57:28.473Z,101656.94
2022-11-30T06:59:58.121Z,101659.63
2022-11-30T07:02:26.061Z,101663.94
2022-11-30T07:04:54.093Z,101667.31
2022-11-30T07:07:22.200Z,101673.00
2022-11-30T07:09:50.810Z,101663.31
2022-11-30T07:12:18.820Z,101659.72
2022-11-30T07:14:47.070Z,101671.63
2022-11-30T07:17:16.458Z,101655.13
2022-11-30T07:19:44.235Z,101678.47
2022-11-30T07:22:12.020Z,101680.78
2022-11-30T07:24:57.194Z,101682.41
2022-11-30T07:27:25.451Z,101675.41
2022-11-30T07:29:53.717Z,101687.19
2022-11-30T07:32:23.060Z,101676.31
2022-11-30T07:34:50.973Z,101679.00
2022-11-30T07:37:19.459Z,101676.72
2022-11-30T07:39:47.411Z,101680.59
2022-11-30T07:42:16.987Z,101686.31
2022-11-30T07:44:45.080Z,101690.38
2022-11-30T07:47:13.139Z,101685.88
2022-11-30T07:49:42.281Z,101692.25
2022-11-30T07:52:10.129Z,101685.06
2022-11-30T07:54:37.880Z,101688.56
2022-11-30T07:57:06.413Z,101683.19
2022-11-30T07:59:34.359Z,101696.34
2022-11-30T08:02:02.324Z,101703.34
2022-11-30T08:04:30.231Z,101701.78
2022-11-30T08:06:59.422Z,101702.44
2022-11-30T08:09:27.256Z,101704.25
2022-11-30T08:11:55.068Z,101703.53
2022-11-30T08:14:22.810Z,101704.25
2022-11-30T08:16:51.858Z,101714.81
2022-11-30T08:19:20.057Z,101712.34
2022-11-30T08:21:47.914Z,101709.53
2022-11-30T08:24:17.309Z,101699.56
2022-11-30T08:26:45.463Z,101705.47
2022-11-30T08:29:13.406Z,101714.25
2022-11-30T08:31:41.179Z,101713.34
2022-11-30T08:34:12.817Z,101710.53
2022-11-30T08:36:41.729Z,101718.41
2022-11-30T08:39:12.343Z,101712.66
2022-11-30T08:41:41.587Z,101719.31
2022-11-30T08:44:09.795Z,101722.72
2022-11-30T08:46:53.915Z,101722.94
2022-11-30T08:49:23.911Z,101733.41
2022-11-30T08:54:45.523Z,101740.50
2022-11-30T08:57:15.212Z,101746.81
2022-11-30T08:59:43.043Z,101740.91
2022-11-30T09:02:12.259Z,101741.81
2022-11-30T09:04:40.365Z,101745.00
2022-11-30T09:07:09.493Z,101743.59
2022-11-30T09:09:37.767Z,101748.97
2022-11-30T09:12:05.917Z,101750.22
2022-11-30T09:14:35.393Z,101752.28
2022-11-30T09:17:03.319Z,101743.03
2022-11-30T09:19:31.270Z,101756.00
2022-11-30T09:21:59.200Z,101754.81
2022-11-30T09:24:26.933Z,101754.72
2022-11-30T09:26:57.569Z,101738.31
2022-11-30T09:29:25.485Z,101751.41
2022-11-30T09:31:54.676Z,101758.19
2022-11-30T09:34:22.729Z,101762.06
2022-11-30T09:36:50.490Z,101759.56
2022-11-30T09:39:18.279Z,101760.00
2022-11-30T09:42:04.418Z,101759.94
2022-11-30T09:44:45.161Z,101755.38
2022-11-30T09:47:36.040Z,101755.66
2022-11-30T09:50:11.639Z,101750.13
2022-11-30T09:52:44.227Z,101754.03
2022-11-30T09:55:18.685Z,101750.66
2022-11-30T09:57:48.380Z,101749.72
2022-11-30T10:00:19.132Z,101748.53
2022-11-30T10:02:50.555Z,101748.03
2022-11-30T10:05:21.597Z,101745.56
2022-11-30T10:08:12.178Z,101747.63
2022-11-30T10:10:42.081Z,101748.44
2022-11-30T10:13:39.290Z,101744.53
2022-11-30T10:16:18.201Z,101753.44
2022-11-30T10:19:00.218Z,101753.44
2022-11-30T10:21:40.968Z,101754.72
2022-11-30T10:24:23.288Z,101753.00
2022-11-30T10:26:55.614Z,101741.66
2022-11-30T10:29:31.467Z,101749.59
2022-11-30T10:32:01.213Z,101750.91
2022-11-30T10:34:35.642Z,101750.03
2022-11-30T10:37:11.106Z,101747.81
2022-11-30T10:39:44.826Z,101752.63
2022-11-30T10:42:17.422Z,101749.03
2022-11-30T10:44:54.082Z,101749.34
2022-11-30T10:47:27.178Z,101751.13
2022-11-30T10:49:56.358Z,101739.16
2022-11-30T10:52:27.285Z,101740.31
2022-11-30T10:55:04.295Z,101744.63
2022-11-30T10:57:34.114Z,101745.56
2022-11-30T11:00:06.630Z,101738.06
2022-11-30T11:02:41.618Z,101748.03
2022-11-30T11:05:22.773Z,101742.44
2022-11-30T11:07:55.233Z,101743.41
2022-11-30T11:10:29.356Z,101743.72
2022-11-30T11:12:57.727Z,101753.72
2022-11-30T11:15:27.270Z,101751.50
2022-11-30T11:18:12.532Z,101759.56
2022-11-30T11:20:43.361Z,101760.00
2022-11-30T11:23:23.755Z,101760.00
2022-11-30T11:25:53.227Z,101765.00
2022-11-30T11:28:22.961Z,101767.69
2022-11-30T11:30:53.844Z,101758.59
2022-11-30T11:33:24.512Z,101769.44
2022-11-30T11:35:56.165Z,101773.03
2022-11-30T11:38:28.253Z,101768.78
2022-11-30T11:40:58.790Z,101775.38
2022-11-30T11:43:29.214Z,101771.28
2022-11-30T11:46:02.071Z,101762.88
2022-11-30T11:48:39.310Z,101769.91
2022-11-30T11:51:11.070Z,101767.19
2022-11-30T11:53:50.050Z,101761.00
2022-11-30T11:56:26.468Z,101772.69
2022-11-30T11:58:59.775Z,101772.88
2022-11-30T12:01:50.211Z,101766.09
2022-11-30T12:04:33.112Z,101765.13
2022-11-30T12:07:12.570Z,101766.22
2022-11-30T12:09:55.359Z,101756.63
2022-11-30T12:12:23.221Z,101758.63
2022-11-30T12:14:51.090Z,101760.13
2022-11-30T12:17:40.293Z,101763.72
2022-11-30T12:20:23.660Z,101762.81
2022-11-30T12:23:09.807Z,101750.03
2022-11-30T12:25:41.829Z,101766.13
2022-11-30T12:28:21.891Z,101774.00
2022-11-30T12:31:04.712Z,101770.78
2022-11-30T12:33:47.522Z,101772.09
2022-11-30T12:36:25.577Z,101775.41
2022-11-30T12:39:01.103Z,101777.38
2022-11-30T12:41:37.499Z,101780.31
2022-11-30T12:44:41.779Z,101778.72
2022-11-30T12:47:26.714Z,101788.09
2022-11-30T12:50:09.993Z,101788.41
2022-11-30T12:52:49.599Z,101782.09
2022-11-30T12:55:31.630Z,101773.59
2022-11-30T12:58:09.079Z,101790.81
2022-11-30T13:00:46.873Z,101792.28
2022-11-30T13:03:42.644Z,101787.00
2022-11-30T13:06:15.646Z,101787.91
2022-11-30T13:08:58.149Z,101784.81
2022-11-30T13:11:33.235Z,101796.91
2022-11-30T13:14:01.967Z,101786.91
2022-11-30T13:16:32.489Z,101792.50
2022-11-30T13:19:09.439Z,101784.69
2022-11-30T13:21:43.053Z,101793.59
2022-11-30T13:24:17.619Z,101798.19
2022-11-30T13:26:53.029Z,101796.88
2022-11-30T13:29:37.054Z,101802.38
2022-11-30T13:32:27.534Z,101780.81
2022-11-30T13:35:46.429Z,101799.91
2022-11-30T13:38:36.406Z,101795.34
2022-11-30T13:41:07.118Z,101798.13
2022-11-30T13:43:41.785Z,101804.75
2022-11-30T13:46:16.619Z,101793.16
2022-11-30T13:48:46.039Z,101801.53
2022-11-30T13:51:15.046Z,101790.66
2022-11-30T13:53:43.186Z,101793.56
2022-11-30T13:56:35.387Z,101794.88
2022-11-30T13:59:41.350Z,101801.84
2022-11-30T14:02:59.128Z,101800.25
2022-11-30T14:05:38.113Z,101782.25
2022-11-30T14:08:32.634Z,101787.28
2022-11-30T14:11:34.121Z,101793.56
2022-11-30T14:14:38.447Z,101793.13
2022-11-30T14:17:19.590Z,101805.78
2022-11-30T14:19:51.803Z,101802.16
2022-11-30T14:22:20.166Z,101802.03
2022-11-30T14:24:49.905Z,101769.06
2022-11-30T14:27:22.646Z,101818.66
2022-11-30T14:29:53.769Z,101811.34
2022-11-30T14:32:34.972Z,101814.53
2022-11-30T14:35:09.317Z,101817.34
2022-11-30T14:37:41.206Z,101818.94
2022-11-30T14:40:11.962Z,101819.84
2022-11-30T14:42:49.313Z,101816.44
2022-11-30T14:45:20.924Z,101812.34
2022-11-30T14:47:52.578Z,101812.25
2022-11-30T14:50:24.281Z,101816.53
2022-11-30T14:53:17.856Z,101826.63
2022-11-30T14:55:51.728Z,101828.00
2022-11-30T14:58:29.708Z,101823.72
2022-11-30T15:00:59.412Z,101825.41
2022-11-30T15:03:34.616Z,101835.41
2022-11-30T15:06:06.837Z,101837.00
2022-11-30T15:08:38.232Z,101845.88
2022-11-30T15:11:08.383Z,101833.19
2022-11-30T15:13:40.536Z,101831.38
2022-11-30T15:16:17.751Z,101838.19
2022-11-30T15:18:47.702Z,101833.88
2022-11-30T15:21:19.953Z,101826.72
2022-11-30T15:23:51.223Z,101841.69
2022-11-30T15:26:23.785Z,101837.28
2022-11-30T15:28:57.523Z,101833.38
2022-11-30T15:31:26.924Z,101837.28
2022-11-30T15:33:56.222Z,101840.16
2022-11-30T15:36:32.841Z,101839.47
2022-11-30T15:39:04.713Z,101838.09
2022-11-30T15:41:34.386Z,101842.84
2022-11-30T15:44:03.140Z,101836.28
2022-11-30T15:46:34.840Z,101825.97
2022-11-30T15:49:18.190Z,101845.28
2022-11-30T15:51:54.507Z,101842.16
2022-11-30T15:54:47.558Z,101843.66
2022-11-30T15:57:15.937Z,101843.94
2022-11-30T15:59:44.362Z,101846.03
2022-11-30T16:02:27.892Z,101852.81
2022-11-30T16:05:23.932Z,101852.19
2022-11-30T16:07:55.470Z,101837.38
2022-11-30T16:10:25.791Z,101847.00
2022-11-30T16:12:55.553Z,101856.03
2022-11-30T16:15:26.022Z,101861.81
2022-11-30T16:17:57.032Z,101865.69
2022-11-30T16:20:26.380Z,101855.31
2022-11-30T16:22:54.241Z,101863.19
2022-11-30T16:25:24.904Z,101861.22
2022-11-30T16:27:53.238Z,101862.41
2022-11-30T16:30:23.301Z,101846.88
2022-11-30T16:32:51.644Z,101867.06
2022-11-30T16:35:23.201Z,101863.72
2022-11-30T16:37:53.022Z,101881.53
2022-11-30T16:40:21.346Z,101880.16
2022-11-30T16:42:50.644Z,101881.47
2022-11-30T16:45:21.293Z,101886.75
2022-11-30T16:47:49.361Z,101878.16
2022-11-30T16:50:17.768Z,101893.97
2022-11-30T16:52:46.086Z,101893.16
2022-11-30T16:55:16.716Z,101888.16
2022-11-30T16:57:45.634Z,101891.75
2022-11-30T17:00:16.654Z,101886.66
2022-11-30T17:02:49.608Z,101887.38
2022-11-30T17:05:17.790Z,101889.16
2022-11-30T17:07:45.734Z,101894.13
2022-11-30T17:10:15.172Z,101895.53
2022-11-30T17:12:43.054Z,101891.94
2022-11-30T17:15:15.628Z,101896.91
2022-11-30T17:17:43.782Z,101900.13
2022-11-30T17:20:13.032Z,101910.31
2022-11-30T17:22:41.244Z,101907.81
2022-11-30T17:25:14.082Z,101909.19
2022-11-30T17:27:43.634Z,101917.16
2022-11-30T17:30:12.636Z,101914.66
2022-11-30T17:32:40.587Z,101927.16
2022-11-30T17:35:09.310Z,101919.88
2022-11-30T17:37:37.231Z,101928.25
2022-11-30T17:40:07.024Z,101925.56
2022-11-30T17:42:35.370Z,101926.66
2022-11-30T17:45:05.121Z,101929.63
2022-11-30T17:47:33.133Z,101929.16
2022-11-30T17:50:01.337Z,101922.78
2022-11-30T17:52:29.179Z,101930.06
2022-11-30T17:54:57.008Z,101916.56
2022-11-30T17:57:24.868Z,101921.34
2022-11-30T17:59:52.696Z,101932.00
2022-11-30T18:02:21.946Z,101927.09
2022-11-30T18:04:50.563Z,101940.88
2022-11-30T18:07:20.039Z,101935.88
2022-11-30T18:09:49.411Z,101908.88
2022-11-30T18:12:17.264Z,101940.22
2022-11-30T18:14:46.279Z,101946.59
2022-11-30T18:17:14.492Z,101937.56
2022-11-30T18:19:43.730Z,101946.84
2022-11-30T18:22:11.518Z,101949.56
2022-11-30T18:24:39.390Z,101953.44
2022-11-30T18:27:07.188Z,101949.63
2022-11-30T18:29:34.972Z,101946.22
2022-11-30T18:32:02.837Z,101947.81
2022-11-30T18:34:30.580Z,101953.03
2022-11-30T18:37:04.101Z,101951.41
2022-11-30T18:39:32.017Z,101947.81
2022-11-30T18:41:59.865Z,101953.50
2022-11-30T18:44:27.620Z,101927.59
2022-11-30T18:46:55.455Z,101952.38
2022-11-30T18:49:23.711Z,101960.59
2022-11-30T18:51:51.517Z,101954.88
2022-11-30T18:54:20.759Z,101959.47
2022-11-30T18:56:48.493Z,101963.06
2022-11-30T18:59:16.616Z,101945.31
2022-11-30T19:01:44.472Z,101964.47
2022-11-30T19:04:12.694Z,101965.56
2022-11-30T19:06:42.718Z,101965.28
2022-11-30T19:09:13.595Z,101969.38
2022-11-30T19:11:44.055Z,101973.47
2022-11-30T19:14:14.503Z,101974.56
2022-11-30T19:16:42.748Z,101974.09
2022-11-30T19:19:13.845Z,101975.97
2022-11-30T19:21:43.714Z,101976.16
2022-11-30T19:24:11.573Z,101971.16
2022-11-30T19:26:40.158Z,101975.69
2022-11-30T19:29:11.730Z,101977.06
2022-11-30T19:31:39.679Z,101977.28
2022-11-30T19:34:12.634Z,101984.75
2022-11-30T19:36:41.633Z,101981.16
2022-11-30T19:39:11.581Z,101987.44
2022-11-30T19:41:39.367Z,101992.16
2022-11-30T19:44:07.272Z,101983.31
2022-11-30T19:46:36.557Z,101985.13
2022-11-30T19:49:04.650Z,101995.78
2022-11-30T19:51:32.828Z,101985.59
2022-11-30T19:54:01.894Z,101984.00
2022-11-30T19:56:31.210Z,101982.91
2022-11-30T19:59:04.692Z,101990.13
2022-11-30T20:01:34.053Z,101987.88
2022-11-30T20:04:04.152Z,101996.50
2022-11-30T20:06:35.692Z,101994.19
2022-11-30T20:09:04.242Z,101994.41
2022-11-30T20:11:32.735Z,101985.22
2022-11-30T20:14:00.786Z,101998.53
2022-11-30T20:16:29.361Z,101998.13
2022-11-30T20:19:00.610Z,102003.13
2022-11-30T20:21:32.228Z,102003.34
2022-11-30T20:24:02.039Z,102003.41
2022-11-30T20:26:31.696Z,101991.66
2022-11-30T20:29:01.404Z,102010.25
2022-11-30T20:31:30.248Z,102000.06
2022-11-30T20:33:58.189Z,102012.34
2022-11-30T20:36:26.122Z,102000.06
2022-11-30T20:38:55.741Z,102010.03
2022-11-30T20:41:25.522Z,102010.03
2022-11-30T20:43:54.100Z,102015.16
2022-11-30T20:46:23.686Z,102015.16
2022-11-30T20:48:52.909Z,102014.75
2022-11-30T20:51:30.862Z,102016.53
2022-11-30T20:54:02.544Z,102018.16
2022-11-30T20:56:30.393Z,102019.22
2022-11-30T20:59:01.746Z,102007.41
2022-11-30T21:01:29.814Z,102013.09
2022-11-30T21:03:59.449Z,102022.38
2022-11-30T21:06:27.543Z,102010.81
2022-11-30T21:08:55.332Z,102017.63
2022-11-30T21:11:24.763Z,102018.50
2022-11-30T21:13:52.731Z,102017.38
2022-11-30T21:16:27.649Z,102014.22
2022-11-30T21:18:57.899Z,102011.94
2022-11-30T21:21:27.331Z,102010.63
2022-11-30T21:23:55.336Z,102014.91
2022-11-30T21:26:26.466Z,102017.00
2022-11-30T21:28:56.720Z,102016.53
2022-11-30T21:31:24.813Z,102014.75
2022-11-30T21:33:53.943Z,102017.25
2022-11-30T21:36:23.561Z,102022.94
2022-11-30T21:39:01.056Z,102019.53
2022-11-30T21:41:34.642Z,102022.03
2022-11-30T21:44:03.149Z,102015.72
2022-11-30T21:46:31.165Z,102010.81
2022-11-30T21:48:59.277Z,102020.28
2022-11-30T21:51:29.042Z,102022.56
2022-11-30T21:53:58.794Z,102023.47
2022-11-30T21:56:28.543Z,102023.47
2022-11-30T21:58:58.472Z,102009.47
2022-11-30T22:01:29.145Z,102022.03
2022-11-30T22:03:58.960Z,102019.09
2022-11-30T22:06:29.746Z,102020.28
2022-11-30T22:09:03.329Z,102026.19
2022-11-30T22:11:32.095Z,102025.00
2022-11-30T22:14:01.569Z,102009.91
2022-11-30T22:16:35.665Z,102023.69
2022-11-30T22:19:04.764Z,102028.28
2022-11-30T22:21:33.348Z,102034.84
2022-11-30T22:24:03.339Z,102033.47
2022-11-30T22:26:32.398Z,102028.88
2022-11-30T22:29:03.447Z,102025.72
2022-11-30T22:31:33.403Z,102025.91
2022-11-30T22:34:01.563Z,102018.50
2022-11-30T22:36:30.927Z,102034.56
2022-11-30T22:39:00.600Z,102029.16
2022-11-30T22:41:29.569Z,102027.75
2022-11-30T22:43:58.075Z,102019.44
2022-11-30T22:46:29.100Z,102028.28
2022-11-30T22:48:59.402Z,102018.06
2022-11-30T22:51:29.345Z,102027.94
2022-11-30T22:53:57.845Z,102031.81
2022-11-30T22:56:28.558Z,102025.78
2022-11-30T22:58:58.920Z,102031.03
2022-11-30T23:01:30.449Z,102019.28
2022-11-30T23:04:03.168Z,102030.84
2022-11-30T23:06:31.109Z,102020.66
2022-11-30T23:08:59.437Z,102018.16
2022-11-30T23:11:28.270Z,102015.94
2022-11-30T23:13:56.366Z,102017.06
2022-11-30T23:16:24.316Z,102017.06
2022-11-30T23:18:57.019Z,102020.66
2022-11-30T23:21:26.749Z,101991.38
2022-11-30T23:23:57.876Z,102023.88
2022-11-30T23:26:27.956Z,102017.75
2022-11-30T23:28:59.142Z,102018.94
2022-11-30T23:31:33.751Z,102015.53
2022-11-30T23:34:06.027Z,102019.63
2022-11-30T23:36:34.628Z,102015.09
2022-11-30T23:39:05.224Z,102020.56
2022-11-30T23:41:34.067Z,102035.53
2022-11-30T23:44:02.377Z,102020.38
2022-11-30T23:46:30.307Z,102021.50
2022-11-30T23:48:58.418Z,102029.22
2022-11-30T23:51:28.112Z,102025.13
2022-11-30T23:53:56.456Z,102028.78
2022-11-30T23:56:24.821Z,102036.97
2022-11-30T23:58:53.242Z,102029.69
